sensor_id;sensor_type;location;lat;lon;timestamp;P1;durP1;ratioP1;P2;durP2;ratioP2
6642;SDS011;3357;48.050;7.800;2023-01-10T00:00:05;0.80;;;0.80;;
6642;SDS011;3357;48.050;7.800;2023-01-10T00:02:31;2.47;;;0.80;;
6642;SDS011;3357;48.050;7.800;2023-01-10T00:04:56;0.80;;;0.70;;
6642;SDS011;3357;48.050;7.800;2023-01-10T00:07:22;1.93;;;0.70;;
6642;SDS011;3357;48.050;7.800;2023-01-10T00:09:47;1.53;;;0.67;;
6642;SDS011;3357;48.050;7.800;2023-01-10T00:12:12;5.33;;;0.73;;
6642;SDS011;3357;48.050;7.800;2023-01-10T00:14:56;1.30;;;0.60;;
6642;SDS011;3357;48.050;7.800;2023-01-10T00:17:21;1.80;;;0.70;;
6642;SDS011;3357;48.050;7.800;2023-01-10T00:19:47;3.37;;;1.23;;
6642;SDS011;3357;48.050;7.800;2023-01-10T00:22:12;1.83;;;0.53;;
6642;SDS011;3357;48.050;7.800;2023-01-10T00:24:37;3.80;;;1.00;;
6642;SDS011;3357;48.050;7.800;2023-01-10T00:27:03;1.80;;;0.70;;
6642;SDS011;3357;48.050;7.800;2023-01-10T00:29:28;1.73;;;0.60;;
6642;SDS011;3357;48.050;7.800;2023-01-10T00:31:58;2.10;;;0.70;;
6642;SDS011;3357;48.050;7.800;2023-01-10T00:34:24;2.13;;;0.80;;
6642;SDS011;3357;48.050;7.800;2023-01-10T00:36:49;2.60;;;0.77;;
6642;SDS011;3357;48.050;7.800;2023-01-10T00:39:14;5.23;;;0.80;;
6642;SDS011;3357;48.050;7.800;2023-01-10T00:41:41;2.23;;;0.70;;
6642;SDS011;3357;48.050;7.800;2023-01-10T00:44:25;3.40;;;0.80;;
6642;SDS011;3357;48.050;7.800;2023-01-10T00:46:51;2.10;;;0.50;;
6642;SDS011;3357;48.050;7.800;2023-01-10T00:49:17;1.07;;;0.60;;
6642;SDS011;3357;48.050;7.800;2023-01-10T00:51:42;1.00;;;0.60;;
6642;SDS011;3357;48.050;7.800;2023-01-10T00:54:09;1.67;;;0.70;;
6642;SDS011;3357;48.050;7.800;2023-01-10T00:56:34;2.97;;;0.50;;
6642;SDS011;3357;48.050;7.800;2023-01-10T00:59:00;2.40;;;0.53;;
6642;SDS011;3357;48.050;7.800;2023-01-10T01:01:25;0.60;;;0.60;;
6642;SDS011;3357;48.050;7.800;2023-01-10T01:03:50;0.53;;;0.50;;
6642;SDS011;3357;48.050;7.800;2023-01-10T01:06:16;1.40;;;0.60;;
6642;SDS011;3357;48.050;7.800;2023-01-10T01:08:41;2.73;;;0.87;;
6642;SDS011;3357;48.050;7.800;2023-01-10T01:11:06;1.07;;;0.60;;
6642;SDS011;3357;48.050;7.800;2023-01-10T01:13:32;1.10;;;0.90;;
6642;SDS011;3357;48.050;7.800;2023-01-10T01:15:57;0.87;;;0.50;;
6642;SDS011;3357;48.050;7.800;2023-01-10T01:18:27;4.17;;;0.70;;
6642;SDS011;3357;48.050;7.800;2023-01-10T01:20:53;5.17;;;0.60;;
6642;SDS011;3357;48.050;7.800;2023-01-10T01:23:26;4.40;;;0.90;;
6642;SDS011;3357;48.050;7.800;2023-01-10T01:25:51;2.17;;;0.70;;
6642;SDS011;3357;48.050;7.800;2023-01-10T01:28:18;1.87;;;0.70;;
6642;SDS011;3357;48.050;7.800;2023-01-10T01:30:44;3.43;;;0.70;;
6642;SDS011;3357;48.050;7.800;2023-01-10T01:33:09;0.70;;;0.70;;
6642;SDS011;3357;48.050;7.800;2023-01-10T01:35:35;3.33;;;0.87;;
6642;SDS011;3357;48.050;7.800;2023-01-10T01:38:00;0.97;;;0.60;;
6642;SDS011;3357;48.050;7.800;2023-01-10T01:40:25;2.50;;;0.50;;
6642;SDS011;3357;48.050;7.800;2023-01-10T01:42:50;0.50;;;0.50;;
6642;SDS011;3357;48.050;7.800;2023-01-10T01:50:23;5.80;;;0.70;;
6642;SDS011;3357;48.050;7.800;2023-01-10T01:52:52;2.50;;;0.90;;
6642;SDS011;3357;48.050;7.800;2023-01-10T01:55:19;7.63;;;0.80;;
6642;SDS011;3357;48.050;7.800;2023-01-10T01:57:45;2.07;;;0.50;;
6642;SDS011;3357;48.050;7.800;2023-01-10T02:00:12;3.40;;;0.90;;
6642;SDS011;3357;48.050;7.800;2023-01-10T02:02:42;2.03;;;0.70;;
6642;SDS011;3357;48.050;7.800;2023-01-10T02:05:11;3.40;;;0.70;;
6642;SDS011;3357;48.050;7.800;2023-01-10T02:07:39;2.77;;;0.70;;
6642;SDS011;3357;48.050;7.800;2023-01-10T02:12:51;2.30;;;0.70;;
6642;SDS011;3357;48.050;7.800;2023-01-10T02:15:17;2.00;;;0.70;;
6642;SDS011;3357;48.050;7.800;2023-01-10T02:17:45;2.63;;;0.87;;
6642;SDS011;3357;48.050;7.800;2023-01-10T02:20:13;4.23;;;0.83;;
6642;SDS011;3357;48.050;7.800;2023-01-10T02:33:55;5.40;;;2.50;;
6642;SDS011;3357;48.050;7.800;2023-01-10T02:39:28;1.80;;;0.70;;
6642;SDS011;3357;48.050;7.800;2023-01-10T02:42:08;4.57;;;1.17;;
6642;SDS011;3357;48.050;7.800;2023-01-10T02:44:53;2.87;;;0.67;;
6642;SDS011;3357;48.050;7.800;2023-01-10T02:47:24;3.60;;;0.83;;
6642;SDS011;3357;48.050;7.800;2023-01-10T02:49:50;6.73;;;1.00;;
6642;SDS011;3357;48.050;7.800;2023-01-10T02:52:24;2.50;;;0.80;;
6642;SDS011;3357;48.050;7.800;2023-01-10T02:54:52;0.60;;;0.50;;
6642;SDS011;3357;48.050;7.800;2023-01-10T03:00:54;4.10;;;0.80;;
6642;SDS011;3357;48.050;7.800;2023-01-10T03:08:32;2.87;;;0.93;;
6642;SDS011;3357;48.050;7.800;2023-01-10T03:11:07;5.33;;;1.10;;
6642;SDS011;3357;48.050;7.800;2023-01-10T03:13:40;2.77;;;0.90;;
6642;SDS011;3357;48.050;7.800;2023-01-10T03:16:09;2.40;;;0.70;;
6642;SDS011;3357;48.050;7.800;2023-01-10T03:18:40;1.90;;;0.90;;
6642;SDS011;3357;48.050;7.800;2023-01-10T03:21:07;4.33;;;1.00;;
6642;SDS011;3357;48.050;7.800;2023-01-10T03:23:34;7.13;;;0.80;;
6642;SDS011;3357;48.050;7.800;2023-01-10T03:26:00;4.27;;;0.63;;
6642;SDS011;3357;48.050;7.800;2023-01-10T03:28:28;2.20;;;0.80;;
6642;SDS011;3357;48.050;7.800;2023-01-10T03:30:57;4.03;;;1.07;;
6642;SDS011;3357;48.050;7.800;2023-01-10T03:33:24;2.00;;;0.70;;
6642;SDS011;3357;48.050;7.800;2023-01-10T03:38:52;3.03;;;0.73;;
6642;SDS011;3357;48.050;7.800;2023-01-10T03:41:39;2.40;;;1.00;;
6642;SDS011;3357;48.050;7.800;2023-01-10T03:44:25;3.03;;;1.10;;
6642;SDS011;3357;48.050;7.800;2023-01-10T03:47:10;2.90;;;1.20;;
6642;SDS011;3357;48.050;7.800;2023-01-10T03:49:58;2.30;;;0.70;;
6642;SDS011;3357;48.050;7.800;2023-01-10T03:52:26;4.40;;;0.70;;
6642;SDS011;3357;48.050;7.800;2023-01-10T03:54:52;1.80;;;0.90;;
6642;SDS011;3357;48.050;7.800;2023-01-10T03:57:21;5.70;;;0.83;;
6642;SDS011;3357;48.050;7.800;2023-01-10T03:59:49;3.63;;;0.70;;
6642;SDS011;3357;48.050;7.800;2023-01-10T04:02:17;5.80;;;0.90;;
6642;SDS011;3357;48.050;7.800;2023-01-10T04:04:42;0.97;;;0.60;;
6642;SDS011;3357;48.050;7.800;2023-01-10T04:07:07;7.10;;;0.87;;
6642;SDS011;3357;48.050;7.800;2023-01-10T04:09:33;1.60;;;0.80;;
6642;SDS011;3357;48.050;7.800;2023-01-10T04:11:58;2.20;;;1.00;;
6642;SDS011;3357;48.050;7.800;2023-01-10T04:14:23;2.00;;;0.70;;
6642;SDS011;3357;48.050;7.800;2023-01-10T04:16:48;3.83;;;0.77;;
6642;SDS011;3357;48.050;7.800;2023-01-10T04:19:14;1.20;;;0.70;;
6642;SDS011;3357;48.050;7.800;2023-01-10T04:21:39;4.50;;;1.00;;
6642;SDS011;3357;48.050;7.800;2023-01-10T04:24:04;3.83;;;0.90;;
6642;SDS011;3357;48.050;7.800;2023-01-10T04:26:30;6.23;;;1.00;;
6642;SDS011;3357;48.050;7.800;2023-01-10T04:28:55;3.13;;;0.90;;
6642;SDS011;3357;48.050;7.800;2023-01-10T04:31:20;3.70;;;0.80;;
6642;SDS011;3357;48.050;7.800;2023-01-10T04:33:47;3.60;;;0.90;;
6642;SDS011;3357;48.050;7.800;2023-01-10T04:36:12;3.90;;;0.80;;
6642;SDS011;3357;48.050;7.800;2023-01-10T04:38:37;3.50;;;0.70;;
6642;SDS011;3357;48.050;7.800;2023-01-10T04:41:03;4.57;;;0.90;;
6642;SDS011;3357;48.050;7.800;2023-01-10T04:43:28;4.33;;;1.00;;
6642;SDS011;3357;48.050;7.800;2023-01-10T04:45:54;3.67;;;0.70;;
6642;SDS011;3357;48.050;7.800;2023-01-10T04:48:19;3.93;;;0.80;;
6642;SDS011;3357;48.050;7.800;2023-01-10T04:50:48;3.33;;;0.90;;
6642;SDS011;3357;48.050;7.800;2023-01-10T04:53:14;5.20;;;1.27;;
6642;SDS011;3357;48.050;7.800;2023-01-10T04:55:40;4.03;;;0.80;;
6642;SDS011;3357;48.050;7.800;2023-01-10T04:58:06;4.47;;;0.77;;
6642;SDS011;3357;48.050;7.800;2023-01-10T05:00:32;2.43;;;0.80;;
6642;SDS011;3357;48.050;7.800;2023-01-10T05:02:57;5.50;;;1.10;;
6642;SDS011;3357;48.050;7.800;2023-01-10T05:05:23;3.17;;;1.00;;
6642;SDS011;3357;48.050;7.800;2023-01-10T05:07:48;2.63;;;0.90;;
6642;SDS011;3357;48.050;7.800;2023-01-10T05:10:14;5.33;;;1.10;;
6642;SDS011;3357;48.050;7.800;2023-01-10T05:12:39;1.70;;;0.70;;
6642;SDS011;3357;48.050;7.800;2023-01-10T05:15:05;5.33;;;0.70;;
6642;SDS011;3357;48.050;7.800;2023-01-10T05:17:30;3.20;;;0.90;;
6642;SDS011;3357;48.050;7.800;2023-01-10T05:19:56;5.27;;;1.10;;
6642;SDS011;3357;48.050;7.800;2023-01-10T05:22:21;2.53;;;0.70;;
6642;SDS011;3357;48.050;7.800;2023-01-10T05:24:47;2.03;;;0.80;;
6642;SDS011;3357;48.050;7.800;2023-01-10T05:27:12;5.73;;;0.87;;
6642;SDS011;3357;48.050;7.800;2023-01-10T05:29:37;3.90;;;0.80;;
6642;SDS011;3357;48.050;7.800;2023-01-10T05:32:02;2.00;;;0.60;;
6642;SDS011;3357;48.050;7.800;2023-01-10T05:34:28;0.90;;;0.67;;
6642;SDS011;3357;48.050;7.800;2023-01-10T05:36:53;1.40;;;0.67;;
6642;SDS011;3357;48.050;7.800;2023-01-10T05:39:19;4.23;;;0.90;;
6642;SDS011;3357;48.050;7.800;2023-01-10T05:41:45;3.43;;;1.00;;
6642;SDS011;3357;48.050;7.800;2023-01-10T05:44:10;1.23;;;0.87;;
6642;SDS011;3357;48.050;7.800;2023-01-10T05:46:37;4.60;;;0.70;;
6642;SDS011;3357;48.050;7.800;2023-01-10T05:49:02;2.10;;;0.70;;
6642;SDS011;3357;48.050;7.800;2023-01-10T05:51:27;0.90;;;0.60;;
6642;SDS011;3357;48.050;7.800;2023-01-10T05:53:53;4.53;;;1.03;;
6642;SDS011;3357;48.050;7.800;2023-01-10T05:56:18;5.20;;;2.13;;
6642;SDS011;3357;48.050;7.800;2023-01-10T05:58:45;2.63;;;0.80;;
6642;SDS011;3357;48.050;7.800;2023-01-10T06:01:11;2.63;;;0.87;;
6642;SDS011;3357;48.050;7.800;2023-01-10T06:03:36;3.87;;;1.20;;
6642;SDS011;3357;48.050;7.800;2023-01-10T06:06:01;8.37;;;1.20;;
6642;SDS011;3357;48.050;7.800;2023-01-10T06:08:27;2.30;;;0.80;;
6642;SDS011;3357;48.050;7.800;2023-01-10T06:10:57;4.63;;;0.87;;
6642;SDS011;3357;48.050;7.800;2023-01-10T06:13:22;2.40;;;0.97;;
6642;SDS011;3357;48.050;7.800;2023-01-10T06:15:48;3.30;;;0.90;;
6642;SDS011;3357;48.050;7.800;2023-01-10T06:18:13;10.30;;;1.10;;
6642;SDS011;3357;48.050;7.800;2023-01-10T06:20:39;7.33;;;0.90;;
6642;SDS011;3357;48.050;7.800;2023-01-10T06:23:05;6.33;;;1.10;;
6642;SDS011;3357;48.050;7.800;2023-01-10T06:25:31;5.97;;;0.80;;
6642;SDS011;3357;48.050;7.800;2023-01-10T06:27:57;3.77;;;0.70;;
6642;SDS011;3357;48.050;7.800;2023-01-10T06:30:22;4.37;;;0.93;;
6642;SDS011;3357;48.050;7.800;2023-01-10T06:32:48;2.80;;;0.97;;
6642;SDS011;3357;48.050;7.800;2023-01-10T06:35:13;3.50;;;1.10;;
6642;SDS011;3357;48.050;7.800;2023-01-10T06:37:38;3.30;;;0.80;;
6642;SDS011;3357;48.050;7.800;2023-01-10T06:40:04;4.50;;;1.13;;
6642;SDS011;3357;48.050;7.800;2023-01-10T06:42:30;5.63;;;1.20;;
6642;SDS011;3357;48.050;7.800;2023-01-10T06:44:55;1.97;;;0.80;;
6642;SDS011;3357;48.050;7.800;2023-01-10T06:47:21;2.13;;;0.93;;
6642;SDS011;3357;48.050;7.800;2023-01-10T06:49:46;5.37;;;1.00;;
6642;SDS011;3357;48.050;7.800;2023-01-10T06:52:11;5.63;;;0.90;;
6642;SDS011;3357;48.050;7.800;2023-01-10T06:54:37;4.53;;;0.90;;
6642;SDS011;3357;48.050;7.800;2023-01-10T06:57:02;4.20;;;0.73;;
6642;SDS011;3357;48.050;7.800;2023-01-10T06:59:28;3.13;;;0.87;;
6642;SDS011;3357;48.050;7.800;2023-01-10T07:01:54;4.87;;;1.53;;
6642;SDS011;3357;48.050;7.800;2023-01-10T07:04:19;2.03;;;1.10;;
6642;SDS011;3357;48.050;7.800;2023-01-10T07:06:45;4.93;;;0.87;;
6642;SDS011;3357;48.050;7.800;2023-01-10T07:09:11;2.97;;;0.97;;
6642;SDS011;3357;48.050;7.800;2023-01-10T07:11:36;6.30;;;1.17;;
6642;SDS011;3357;48.050;7.800;2023-01-10T07:14:01;6.23;;;0.93;;
6642;SDS011;3357;48.050;7.800;2023-01-10T07:16:27;6.57;;;1.50;;
6642;SDS011;3357;48.050;7.800;2023-01-10T07:18:53;1.60;;;0.80;;
6642;SDS011;3357;48.050;7.800;2023-01-10T07:21:18;1.73;;;0.70;;
6642;SDS011;3357;48.050;7.800;2023-01-10T07:23:46;5.57;;;0.93;;
6642;SDS011;3357;48.050;7.800;2023-01-10T07:26:13;3.30;;;1.03;;
6642;SDS011;3357;48.050;7.800;2023-01-10T07:28:41;4.33;;;0.63;;
6642;SDS011;3357;48.050;7.800;2023-01-10T07:31:08;8.37;;;0.90;;
6642;SDS011;3357;48.050;7.800;2023-01-10T07:33:33;2.03;;;0.77;;
6642;SDS011;3357;48.050;7.800;2023-01-10T07:35:59;2.43;;;0.63;;
6642;SDS011;3357;48.050;7.800;2023-01-10T07:38:25;4.57;;;0.90;;
6642;SDS011;3357;48.050;7.800;2023-01-10T07:40:51;4.97;;;1.07;;
6642;SDS011;3357;48.050;7.800;2023-01-10T07:43:17;6.93;;;0.90;;
6642;SDS011;3357;48.050;7.800;2023-01-10T07:45:42;3.40;;;0.80;;
6642;SDS011;3357;48.050;7.800;2023-01-10T07:48:07;7.63;;;1.00;;
6642;SDS011;3357;48.050;7.800;2023-01-10T07:50:33;5.93;;;1.00;;
6642;SDS011;3357;48.050;7.800;2023-01-10T07:53:00;3.00;;;0.87;;
6642;SDS011;3357;48.050;7.800;2023-01-10T07:55:27;4.70;;;1.00;;
6642;SDS011;3357;48.050;7.800;2023-01-10T07:57:52;5.30;;;1.17;;
6642;SDS011;3357;48.050;7.800;2023-01-10T08:00:18;6.83;;;1.10;;
6642;SDS011;3357;48.050;7.800;2023-01-10T08:02:44;1.30;;;0.80;;
6642;SDS011;3357;48.050;7.800;2023-01-10T08:05:09;2.40;;;0.83;;
6642;SDS011;3357;48.050;7.800;2023-01-10T08:07:35;6.27;;;0.90;;
6642;SDS011;3357;48.050;7.800;2023-01-10T08:10:03;5.20;;;1.17;;
6642;SDS011;3357;48.050;7.800;2023-01-10T08:12:29;5.53;;;1.50;;
6642;SDS011;3357;48.050;7.800;2023-01-10T08:14:54;2.43;;;1.00;;
6642;SDS011;3357;48.050;7.800;2023-01-10T08:17:20;3.63;;;1.07;;
6642;SDS011;3357;48.050;7.800;2023-01-10T08:19:47;3.07;;;1.10;;
6642;SDS011;3357;48.050;7.800;2023-01-10T08:22:13;5.10;;;1.10;;
6642;SDS011;3357;48.050;7.800;2023-01-10T08:24:39;10.27;;;1.07;;
6642;SDS011;3357;48.050;7.800;2023-01-10T08:27:04;3.73;;;1.03;;
6642;SDS011;3357;48.050;7.800;2023-01-10T08:29:30;8.53;;;1.60;;
6642;SDS011;3357;48.050;7.800;2023-01-10T08:31:56;3.10;;;1.10;;
6642;SDS011;3357;48.050;7.800;2023-01-10T08:34:21;5.10;;;0.90;;
6642;SDS011;3357;48.050;7.800;2023-01-10T08:36:50;9.13;;;0.97;;
6642;SDS011;3357;48.050;7.800;2023-01-10T08:39:16;7.73;;;1.00;;
6642;SDS011;3357;48.050;7.800;2023-01-10T08:41:44;5.87;;;0.90;;
6642;SDS011;3357;48.050;7.800;2023-01-10T08:44:10;7.63;;;0.97;;
6642;SDS011;3357;48.050;7.800;2023-01-10T08:46:37;7.43;;;1.60;;
6642;SDS011;3357;48.050;7.800;2023-01-10T08:49:02;3.90;;;0.87;;
6642;SDS011;3357;48.050;7.800;2023-01-10T08:51:28;3.30;;;0.90;;
6642;SDS011;3357;48.050;7.800;2023-01-10T08:53:53;7.17;;;1.33;;
6642;SDS011;3357;48.050;7.800;2023-01-10T08:56:18;10.30;;;1.70;;
6642;SDS011;3357;48.050;7.800;2023-01-10T08:58:43;4.93;;;1.03;;
6642;SDS011;3357;48.050;7.800;2023-01-10T09:01:10;8.43;;;1.80;;
6642;SDS011;3357;48.050;7.800;2023-01-10T09:03:37;2.90;;;1.20;;
6642;SDS011;3357;48.050;7.800;2023-01-10T09:06:03;7.83;;;1.00;;
6642;SDS011;3357;48.050;7.800;2023-01-10T09:08:29;6.50;;;1.10;;
6642;SDS011;3357;48.050;7.800;2023-01-10T09:10:59;6.60;;;1.50;;
6642;SDS011;3357;48.050;7.800;2023-01-10T09:13:24;7.50;;;1.10;;
6642;SDS011;3357;48.050;7.800;2023-01-10T09:15:50;17.77;;;1.07;;
6642;SDS011;3357;48.050;7.800;2023-01-10T09:18:15;6.03;;;2.30;;
6642;SDS011;3357;48.050;7.800;2023-01-10T09:20:41;11.93;;;1.20;;
6642;SDS011;3357;48.050;7.800;2023-01-10T09:23:09;11.17;;;1.23;;
6642;SDS011;3357;48.050;7.800;2023-01-10T09:25:36;10.27;;;1.57;;
6642;SDS011;3357;48.050;7.800;2023-01-10T09:28:03;4.17;;;0.93;;
6642;SDS011;3357;48.050;7.800;2023-01-10T09:30:30;4.80;;;1.47;;
6642;SDS011;3357;48.050;7.800;2023-01-10T09:32:57;5.57;;;1.20;;
6642;SDS011;3357;48.050;7.800;2023-01-10T09:35:23;18.77;;;1.27;;
6642;SDS011;3357;48.050;7.800;2023-01-10T09:37:52;6.10;;;1.30;;
6642;SDS011;3357;48.050;7.800;2023-01-10T09:40:20;7.03;;;1.30;;
6642;SDS011;3357;48.050;7.800;2023-01-10T09:42:55;3.90;;;1.07;;
6642;SDS011;3357;48.050;7.800;2023-01-10T09:45:49;1.27;;;1.00;;
6642;SDS011;3357;48.050;7.800;2023-01-10T09:48:51;3.90;;;1.00;;
6642;SDS011;3357;48.050;7.800;2023-01-10T09:51:39;6.20;;;1.17;;
6642;SDS011;3357;48.050;7.800;2023-01-10T09:54:25;5.27;;;0.80;;
6642;SDS011;3357;48.050;7.800;2023-01-10T09:56:52;2.73;;;1.20;;
6642;SDS011;3357;48.050;7.800;2023-01-10T09:59:20;7.90;;;1.20;;
6642;SDS011;3357;48.050;7.800;2023-01-10T10:01:48;3.13;;;1.20;;
6642;SDS011;3357;48.050;7.800;2023-01-10T10:04:24;7.10;;;1.20;;
6642;SDS011;3357;48.050;7.800;2023-01-10T10:06:54;3.53;;;1.20;;
6642;SDS011;3357;48.050;7.800;2023-01-10T10:09:22;2.10;;;1.27;;
6642;SDS011;3357;48.050;7.800;2023-01-10T10:12:09;6.07;;;1.90;;
6642;SDS011;3357;48.050;7.800;2023-01-10T10:20:52;5.23;;;1.37;;
6642;SDS011;3357;48.050;7.800;2023-01-10T10:23:27;3.93;;;1.37;;
6642;SDS011;3357;48.050;7.800;2023-01-10T10:28:49;7.10;;;1.33;;
6642;SDS011;3357;48.050;7.800;2023-01-10T10:34:11;6.37;;;1.50;;
6642;SDS011;3357;48.050;7.800;2023-01-10T10:36:51;7.40;;;1.20;;
6642;SDS011;3357;48.050;7.800;2023-01-10T10:39:21;4.30;;;1.40;;
6642;SDS011;3357;48.050;7.800;2023-01-10T10:41:50;8.93;;;1.53;;
6642;SDS011;3357;48.050;7.800;2023-01-10T10:44:21;4.80;;;0.90;;
6642;SDS011;3357;48.050;7.800;2023-01-10T10:46:55;8.80;;;1.00;;
6642;SDS011;3357;48.050;7.800;2023-01-10T10:49:36;6.20;;;1.07;;
6642;SDS011;3357;48.050;7.800;2023-01-10T10:52:04;5.40;;;1.17;;
6642;SDS011;3357;48.050;7.800;2023-01-10T10:54:37;2.63;;;1.00;;
6642;SDS011;3357;48.050;7.800;2023-01-10T10:57:03;5.10;;;0.90;;
6642;SDS011;3357;48.050;7.800;2023-01-10T10:59:28;9.43;;;1.20;;
6642;SDS011;3357;48.050;7.800;2023-01-10T11:01:53;8.20;;;1.40;;
6642;SDS011;3357;48.050;7.800;2023-01-10T11:04:20;8.13;;;1.00;;
6642;SDS011;3357;48.050;7.800;2023-01-10T11:06:46;5.67;;;1.37;;
6642;SDS011;3357;48.050;7.800;2023-01-10T11:09:19;7.00;;;1.30;;
6642;SDS011;3357;48.050;7.800;2023-01-10T11:12:04;4.20;;;1.20;;
6642;SDS011;3357;48.050;7.800;2023-01-10T11:14:40;9.20;;;1.13;;
6642;SDS011;3357;48.050;7.800;2023-01-10T11:17:23;3.87;;;1.13;;
6642;SDS011;3357;48.050;7.800;2023-01-10T11:20:00;8.17;;;1.40;;
6642;SDS011;3357;48.050;7.800;2023-01-10T11:22:35;6.43;;;1.33;;
6642;SDS011;3357;48.050;7.800;2023-01-10T11:25:03;7.63;;;1.30;;
6642;SDS011;3357;48.050;7.800;2023-01-10T11:27:30;5.60;;;1.17;;
6642;SDS011;3357;48.050;7.800;2023-01-10T11:29:58;12.20;;;1.30;;
6642;SDS011;3357;48.050;7.800;2023-01-10T11:32:39;6.70;;;1.50;;
6642;SDS011;3357;48.050;7.800;2023-01-10T11:35:18;5.00;;;0.90;;
6642;SDS011;3357;48.050;7.800;2023-01-10T11:37:49;10.20;;;1.83;;
6642;SDS011;3357;48.050;7.800;2023-01-10T11:40:25;10.73;;;1.10;;
6642;SDS011;3357;48.050;7.800;2023-01-10T11:42:52;4.63;;;1.40;;
6642;SDS011;3357;48.050;7.800;2023-01-10T11:47:46;6.80;;;1.00;;
6642;SDS011;3357;48.050;7.800;2023-01-10T11:52:47;4.33;;;1.10;;
6642;SDS011;3357;48.050;7.800;2023-01-10T11:55:17;12.07;;;1.03;;
6642;SDS011;3357;48.050;7.800;2023-01-10T11:57:44;5.40;;;1.00;;
6642;SDS011;3357;48.050;7.800;2023-01-10T12:00:10;2.10;;;0.90;;
6642;SDS011;3357;48.050;7.800;2023-01-10T12:02:40;8.40;;;1.33;;
6642;SDS011;3357;48.050;7.800;2023-01-10T12:05:08;6.17;;;0.90;;
6642;SDS011;3357;48.050;7.800;2023-01-10T12:07:54;2.13;;;0.80;;
6642;SDS011;3357;48.050;7.800;2023-01-10T12:10:21;8.80;;;1.30;;
6642;SDS011;3357;48.050;7.800;2023-01-10T12:12:55;8.00;;;1.23;;
6642;SDS011;3357;48.050;7.800;2023-01-10T12:15:26;10.47;;;1.00;;
6642;SDS011;3357;48.050;7.800;2023-01-10T12:17:54;6.83;;;1.30;;
6642;SDS011;3357;48.050;7.800;2023-01-10T12:20:25;4.27;;;0.70;;
6642;SDS011;3357;48.050;7.800;2023-01-10T12:22:53;9.73;;;1.13;;
6642;SDS011;3357;48.050;7.800;2023-01-10T12:25:23;8.90;;;1.00;;
6642;SDS011;3357;48.050;7.800;2023-01-10T12:27:54;4.20;;;0.80;;
6642;SDS011;3357;48.050;7.800;2023-01-10T12:30:33;4.40;;;1.03;;
6642;SDS011;3357;48.050;7.800;2023-01-10T12:33:03;5.07;;;1.10;;
6642;SDS011;3357;48.050;7.800;2023-01-10T12:41:09;5.30;;;1.10;;
6642;SDS011;3357;48.050;7.800;2023-01-10T12:43:58;6.63;;;1.00;;
6642;SDS011;3357;48.050;7.800;2023-01-10T12:46:46;3.70;;;0.90;;
6642;SDS011;3357;48.050;7.800;2023-01-10T12:51:49;8.80;;;1.23;;
6642;SDS011;3357;48.050;7.800;2023-01-10T12:54:22;6.33;;;1.00;;
6642;SDS011;3357;48.050;7.800;2023-01-10T12:56:49;6.43;;;1.43;;
6642;SDS011;3357;48.050;7.800;2023-01-10T12:59:16;8.00;;;1.20;;
6642;SDS011;3357;48.050;7.800;2023-01-10T13:01:53;6.13;;;1.67;;
6642;SDS011;3357;48.050;7.800;2023-01-10T13:04:25;1.77;;;0.80;;
6642;SDS011;3357;48.050;7.800;2023-01-10T13:06:51;4.27;;;0.93;;
6642;SDS011;3357;48.050;7.800;2023-01-10T13:09:22;8.50;;;1.27;;
6642;SDS011;3357;48.050;7.800;2023-01-10T13:11:53;7.63;;;0.80;;
6642;SDS011;3357;48.050;7.800;2023-01-10T13:14:22;10.43;;;1.13;;
6642;SDS011;3357;48.050;7.800;2023-01-10T13:16:55;3.03;;;1.13;;
6642;SDS011;3357;48.050;7.800;2023-01-10T13:19:27;4.13;;;0.90;;
6642;SDS011;3357;48.050;7.800;2023-01-10T13:24:53;4.30;;;1.30;;
6642;SDS011;3357;48.050;7.800;2023-01-10T13:27:20;13.03;;;1.10;;
6642;SDS011;3357;48.050;7.800;2023-01-10T13:29:45;7.30;;;1.20;;
6642;SDS011;3357;48.050;7.800;2023-01-10T13:32:20;3.77;;;1.00;;
6642;SDS011;3357;48.050;7.800;2023-01-10T13:34:47;3.03;;;1.00;;
6642;SDS011;3357;48.050;7.800;2023-01-10T13:37:20;5.70;;;1.30;;
6642;SDS011;3357;48.050;7.800;2023-01-10T13:39:54;9.63;;;1.13;;
6642;SDS011;3357;48.050;7.800;2023-01-10T13:42:23;8.43;;;1.20;;
6642;SDS011;3357;48.050;7.800;2023-01-10T13:45:28;3.40;;;0.90;;
6642;SDS011;3357;48.050;7.800;2023-01-10T13:47:58;3.17;;;0.90;;
6642;SDS011;3357;48.050;7.800;2023-01-10T14:01:16;1.90;;;0.70;;
6642;SDS011;3357;48.050;7.800;2023-01-10T14:04:16;3.63;;;1.00;;
6642;SDS011;3357;48.050;7.800;2023-01-10T14:06:43;6.00;;;0.90;;
6642;SDS011;3357;48.050;7.800;2023-01-10T14:19:44;2.67;;;0.83;;
6642;SDS011;3357;48.050;7.800;2023-01-10T14:22:31;6.53;;;1.10;;
6642;SDS011;3357;48.050;7.800;2023-01-10T14:24:58;5.40;;;1.00;;
6642;SDS011;3357;48.050;7.800;2023-01-10T14:27:27;4.97;;;0.90;;
6642;SDS011;3357;48.050;7.800;2023-01-10T14:30:00;2.23;;;0.70;;
6642;SDS011;3357;48.050;7.800;2023-01-10T14:32:29;7.30;;;1.10;;
6642;SDS011;3357;48.050;7.800;2023-01-10T14:34:56;1.90;;;0.70;;
6642;SDS011;3357;48.050;7.800;2023-01-10T14:37:30;4.53;;;0.90;;
6642;SDS011;3357;48.050;7.800;2023-01-10T14:40:03;4.93;;;0.90;;
6642;SDS011;3357;48.050;7.800;2023-01-10T14:42:29;4.43;;;0.70;;
6642;SDS011;3357;48.050;7.800;2023-01-10T14:44:59;1.07;;;0.70;;
6642;SDS011;3357;48.050;7.800;2023-01-10T14:47:31;8.50;;;1.10;;
6642;SDS011;3357;48.050;7.800;2023-01-10T14:49:58;5.03;;;1.03;;
6642;SDS011;3357;48.050;7.800;2023-01-10T14:52:28;9.70;;;0.90;;
6642;SDS011;3357;48.050;7.800;2023-01-10T14:55:00;0.97;;;0.60;;
6642;SDS011;3357;48.050;7.800;2023-01-10T14:57:51;4.10;;;0.93;;
6642;SDS011;3357;48.050;7.800;2023-01-10T15:00:23;3.70;;;0.60;;
6642;SDS011;3357;48.050;7.800;2023-01-10T15:02:53;2.20;;;0.63;;
6642;SDS011;3357;48.050;7.800;2023-01-10T15:05:23;2.93;;;0.90;;
6642;SDS011;3357;48.050;7.800;2023-01-10T15:07:50;3.23;;;0.80;;
6642;SDS011;3357;48.050;7.800;2023-01-10T15:12:47;2.10;;;0.90;;
6642;SDS011;3357;48.050;7.800;2023-01-10T15:15:16;2.53;;;0.90;;
6642;SDS011;3357;48.050;7.800;2023-01-10T15:17:43;1.17;;;0.70;;
6642;SDS011;3357;48.050;7.800;2023-01-10T15:20:13;8.43;;;1.10;;
6642;SDS011;3357;48.050;7.800;2023-01-10T15:22:39;6.53;;;1.20;;
6642;SDS011;3357;48.050;7.800;2023-01-10T15:25:23;4.47;;;0.87;;
6642;SDS011;3357;48.050;7.800;2023-01-10T15:27:52;4.37;;;0.77;;
6642;SDS011;3357;48.050;7.800;2023-01-10T15:30:22;3.47;;;0.87;;
6642;SDS011;3357;48.050;7.800;2023-01-10T15:32:50;2.13;;;0.70;;
6642;SDS011;3357;48.050;7.800;2023-01-10T15:35:27;4.30;;;1.03;;
6642;SDS011;3357;48.050;7.800;2023-01-10T15:40:41;3.97;;;0.80;;
6642;SDS011;3357;48.050;7.800;2023-01-10T15:43:10;1.80;;;0.70;;
6642;SDS011;3357;48.050;7.800;2023-01-10T15:45:43;4.43;;;1.00;;
6642;SDS011;3357;48.050;7.800;2023-01-10T15:50:55;3.50;;;1.00;;
6642;SDS011;3357;48.050;7.800;2023-01-10T15:56:16;2.90;;;1.13;;
6642;SDS011;3357;48.050;7.800;2023-01-10T15:58:44;4.40;;;0.80;;
6642;SDS011;3357;48.050;7.800;2023-01-10T16:01:13;4.80;;;1.10;;
6642;SDS011;3357;48.050;7.800;2023-01-10T16:03:52;2.13;;;0.77;;
6642;SDS011;3357;48.050;7.800;2023-01-10T16:06:24;5.40;;;0.90;;
6642;SDS011;3357;48.050;7.800;2023-01-10T16:08:55;2.50;;;0.60;;
6642;SDS011;3357;48.050;7.800;2023-01-10T16:11:23;3.37;;;1.10;;
6642;SDS011;3357;48.050;7.800;2023-01-10T16:14:11;5.00;;;1.63;;
6642;SDS011;3357;48.050;7.800;2023-01-10T16:16:37;2.83;;;1.20;;
6642;SDS011;3357;48.050;7.800;2023-01-10T16:19:02;5.07;;;0.97;;
6642;SDS011;3357;48.050;7.800;2023-01-10T16:21:31;2.07;;;1.00;;
6642;SDS011;3357;48.050;7.800;2023-01-10T16:23:59;3.47;;;1.50;;
6642;SDS011;3357;48.050;7.800;2023-01-10T16:26:25;15.90;;;7.07;;
6642;SDS011;3357;48.050;7.800;2023-01-10T16:28:50;21.07;;;11.57;;
6642;SDS011;3357;48.050;7.800;2023-01-10T16:33:44;5.20;;;4.30;;
6642;SDS011;3357;48.050;7.800;2023-01-10T16:36:12;6.70;;;3.63;;
6642;SDS011;3357;48.050;7.800;2023-01-10T16:38:40;3.00;;;1.30;;
6642;SDS011;3357;48.050;7.800;2023-01-10T16:41:10;2.80;;;1.43;;
6642;SDS011;3357;48.050;7.800;2023-01-10T16:43:55;3.70;;;1.93;;
6642;SDS011;3357;48.050;7.800;2023-01-10T16:46:21;11.97;;;3.90;;
6642;SDS011;3357;48.050;7.800;2023-01-10T16:48:48;5.70;;;3.00;;
6642;SDS011;3357;48.050;7.800;2023-01-10T16:53:55;2.57;;;1.10;;
6642;SDS011;3357;48.050;7.800;2023-01-10T16:56:22;4.03;;;1.30;;
6642;SDS011;3357;48.050;7.800;2023-01-10T16:58:50;8.80;;;1.20;;
6642;SDS011;3357;48.050;7.800;2023-01-10T17:01:17;5.63;;;1.40;;
6642;SDS011;3357;48.050;7.800;2023-01-10T17:03:44;2.27;;;2.07;;